Time;durP1;ratioP1;P1;durP2;ratioP2;P2;SDS_P1;SDS_P2;PMS_P1;PMS_P2;Temp;Humidity;BMP_temperature;BMP_pressure;BME280_temperature;BME280_humidity;BME280_pressure;Samples;Min_cycle;Max_cycle;Signal;HPM_P1;HPM_P2
2021/08/19 00:00:54;;;;;;;;;1.00;1.00;;;;;;;;6489410;39;9562;-64
2021/08/19 00:06:56;;;;;;;;;3.33;2.33;;;;;;;;6488343;47;8955;-63
2021/08/19 00:12:59;;;;;;;;;2.00;2.00;;;;;;;;6489906;31;9054;-62
2021/08/19 00:19:01;;;;;;;;;2.00;2.00;;;;;;;;6488719;39;8992;-64
2021/08/19 00:25:05;;;;;;;;;2.00;2.00;;;;;;;;6488957;31;8983;-63
2021/08/19 00:31:08;;;;;;;;;3.00;2.00;;;;;;;;6488664;39;8959;-63
2021/08/19 00:37:11;;;;;;;;;3.00;3.00;;;;;;;;6486622;39;8986;-63
2021/08/19 00:43:14;;;;;;;;;2.67;2.67;;;;;;;;6489480;31;8967;-62
2021/08/19 00:49:16;;;;;;;;;3.00;3.00;;;;;;;;6490536;39;8973;-63
2021/08/19 00:55:20;;;;;;;;;2.00;2.00;;;;;;;;6490762;39;9034;-63
2021/08/19 01:01:22;;;;;;;;;2.33;2.33;;;;;;;;6490727;39;9003;-63
2021/08/19 01:07:25;;;;;;;;;3.00;2.00;;;;;;;;6490826;31;8999;-63
2021/08/19 01:13:27;;;;;;;;;4.00;3.00;;;;;;;;6490219;31;8975;-63
2021/08/19 01:19:31;;;;;;;;;3.33;3.33;;;;;;;;6490306;39;8991;-63
2021/08/19 01:25:33;;;;;;;;;3.00;3.00;;;;;;;;6489966;46;8978;-62
2021/08/19 01:31:36;;;;;;;;;3.00;2.00;;;;;;;;6490154;39;9596;-63
2021/08/19 01:37:38;;;;;;;;;3.33;2.67;;;;;;;;6489543;46;8987;-63
2021/08/19 01:43:42;;;;;;;;;4.67;4.33;;;;;;;;6490807;31;8995;-63
2021/08/19 01:49:44;;;;;;;;;3.67;3.00;;;;;;;;6490499;31;8974;-63
2021/08/19 01:55:46;;;;;;;;;2.00;2.00;;;;;;;;6489240;39;9062;-62
2021/08/19 02:01:48;;;;;;;;;0.00;0.00;;;;;;;;6490389;39;9182;-62
2021/08/19 02:07:50;;;;;;;;;2.67;2.67;;;;;;;;6490131;31;8979;-64
2021/08/19 02:13:53;;;;;;;;;1.67;1.67;;;;;;;;6490332;39;8982;-63
2021/08/19 02:19:55;;;;;;;;;1.00;1.00;;;;;;;;6489719;31;8979;-64
2021/08/19 02:25:57;;;;;;;;;1.00;1.00;;;;;;;;6489287;46;9010;-62
2021/08/19 02:31:59;;;;;;;;;1.00;1.00;;;;;;;;6490144;39;9673;-64
2021/08/19 02:38:06;;;;;;;;;2.00;2.00;;;;;;;;6488946;46;8983;-62
2021/08/19 02:44:09;;;;;;;;;3.33;2.00;;;;;;;;6489670;31;8947;-63
2021/08/19 02:50:13;;;;;;;;;1.00;1.00;;;;;;;;6489295;46;8962;-63
2021/08/19 02:56:15;;;;;;;;;2.00;2.00;;;;;;;;6489360;31;9010;-63
2021/08/19 03:02:17;;;;;;;;;2.00;2.00;;;;;;;;6489026;46;8986;-63
2021/08/19 03:08:19;;;;;;;;;1.33;1.33;;;;;;;;6488556;46;9064;-63
2021/08/19 03:14:21;;;;;;;;;1.33;1.33;;;;;;;;6488899;39;9017;-63
2021/08/19 03:20:24;;;;;;;;;2.00;2.00;;;;;;;;6489067;39;9007;-62
2021/08/19 03:26:26;;;;;;;;;2.00;2.00;;;;;;;;6489364;39;8954;-62
2021/08/19 03:32:29;;;;;;;;;4.00;3.00;;;;;;;;6489425;31;9123;-62
2021/08/19 03:38:32;;;;;;;;;3.00;3.00;;;;;;;;6488335;31;8979;-63
2021/08/19 03:44:34;;;;;;;;;4.67;4.00;;;;;;;;6489574;39;9100;-62
2021/08/19 03:50:36;;;;;;;;;2.00;2.00;;;;;;;;6488794;39;9718;-63
2021/08/19 03:56:39;;;;;;;;;3.00;3.00;;;;;;;;6489908;39;9038;-63
2021/08/19 04:02:43;;;;;;;;;4.00;3.00;;;;;;;;6468601;31;9627;-62
2021/08/19 04:08:46;;;;;;;;;4.00;4.00;;;;;;;;6489707;47;8995;-62
2021/08/19 04:14:48;;;;;;;;;3.00;3.00;;;;;;;;6491754;39;9120;-61
2021/08/19 04:20:50;;;;;;;;;3.67;3.67;;;;;;;;6493139;46;9064;-62
2021/08/19 04:26:52;;;;;;;;;2.33;2.33;;;;;;;;6493315;39;9005;-61
2021/08/19 04:32:55;;;;;;;;;3.67;3.00;;;;;;;;6493787;46;8920;-62
2021/08/19 04:38:57;;;;;;;;;3.00;3.00;;;;;;;;6492712;39;9769;-62
2021/08/19 04:45:11;;;;;;;;;3.67;3.00;;;;;;;;6493328;46;8940;-62
2021/08/19 04:51:13;;;;;;;;;7.00;3.00;;;;;;;;6493792;39;8986;-61
2021/08/19 04:57:15;;;;;;;;;4.00;4.00;;;;;;;;6492927;39;9643;-63
2021/08/19 05:03:17;;;;;;;;;3.00;3.00;;;;;;;;6492309;46;9017;-63
2021/08/19 05:09:21;;;;;;;;;6.67;4.33;;;;;;;;6492449;39;9095;-62
2021/08/19 05:15:23;;;;;;;;;4.33;4.00;;;;;;;;6490420;39;9047;-62
2021/08/19 05:21:25;;;;;;;;;7.67;7.00;;;;;;;;6492886;39;9006;-62
2021/08/19 05:27:27;;;;;;;;;6.33;5.00;;;;;;;;6491701;39;9003;-63
2021/08/19 05:33:30;;;;;;;;;4.00;4.00;;;;;;;;6489732;39;9110;-62
2021/08/19 05:39:32;;;;;;;;;7.50;6.50;;;;;;;;6488971;46;9137;-62
2021/08/19 05:45:37;;;;;;;;;5.67;4.00;;;;;;;;6489540;31;9080;-62
2021/08/19 05:51:40;;;;;;;;;6.25;4.25;;;;;;;;6488855;39;9583;-62
2021/08/19 05:57:42;;;;;;;;;4.75;4.75;;;;;;;;6490268;39;10047;-62
2021/08/19 06:03:45;;;;;;;;;7.00;7.00;;;;;;;;6490995;39;10185;-62
2021/08/19 06:09:48;;;;;;;;;9.00;6.00;;;;;;;;6488575;46;9141;-61
2021/08/19 06:15:52;;;;;;;;;8.33;8.33;;;;;;;;6489446;39;9021;-62
2021/08/19 06:21:55;;;;;;;;;6.75;6.75;;;;;;;;6489215;39;9133;-62
2021/08/19 06:27:58;;;;;;;;;8.25;7.00;;;;;;;;6487187;39;9006;-63
2021/08/19 06:34:00;;;;;;;;;7.75;7.75;;;;;;;;6487814;39;8968;-62
2021/08/19 06:40:03;;;;;;;;;13.00;12.50;;;;;;;;6488077;46;9165;-61
2021/08/19 06:46:06;;;;;;;;;17.67;16.67;;;;;;;;6486495;46;8976;-61
2021/08/19 06:52:08;;;;;;;;;11.25;11.25;;;;;;;;6486142;39;9623;-62
2021/08/19 06:58:10;;;;;;;;;11.25;11.25;;;;;;;;6487699;39;9013;-61
2021/08/19 07:04:12;;;;;;;;;16.00;14.00;;;;;;;;6488403;39;8987;-62
2021/08/19 07:10:14;;;;;;;;;14.00;14.00;;;;;;;;6487138;39;9028;-63
2021/08/19 07:16:17;;;;;;;;;10.25;10.25;;;;;;;;6487443;46;8986;-64
2021/08/19 07:22:20;;;;;;;;;11.00;11.00;;;;;;;;6488873;39;9008;-62
2021/08/19 07:28:22;;;;;;;;;11.25;10.25;;;;;;;;6487746;39;9111;-61
2021/08/19 07:34:25;;;;;;;;;8.00;8.00;;;;;;;;6489627;39;8966;-64
2021/08/19 07:40:30;;;;;;;;;8.00;8.00;;;;;;;;6487846;39;9769;-62
2021/08/19 07:46:33;;;;;;;;;8.00;8.00;;;;;;;;6487477;47;9044;-61
2021/08/19 07:52:39;;;;;;;;;5.25;5.25;;;;;;;;6488779;46;9037;-62
2021/08/19 07:58:41;;;;;;;;;9.00;8.25;;;;;;;;6128788;39;20002310;-62
2021/08/19 08:04:43;;;;;;;;;9.00;9.00;;;;;;;;6490130;39;9000;-61
2021/08/19 08:10:51;;;;;;;;;11.75;9.75;;;;;;;;6489084;39;9115;-65
2021/08/19 08:16:57;;;;;;;;;8.50;8.50;;;;;;;;6488663;46;9008;-65
2021/08/19 08:23:00;;;;;;;;;9.75;9.50;;;;;;;;6488667;39;8964;-63
2021/08/19 08:29:02;;;;;;;;;6.75;6.25;;;;;;;;6488009;46;9008;-66
2021/08/19 08:35:07;;;;;;;;;9.25;9.25;;;;;;;;6489704;39;8945;-61
2021/08/19 08:41:10;;;;;;;;;7.25;7.25;;;;;;;;6489004;39;9090;-62
2021/08/19 08:47:18;;;;;;;;;5.75;5.75;;;;;;;;6488847;39;9083;-64
2021/08/19 08:53:25;;;;;;;;;9.75;9.75;;;;;;;;6487842;31;9022;-63
2021/08/19 08:59:28;;;;;;;;;5.25;5.25;;;;;;;;6485522;46;8981;-62
2021/08/19 09:05:44;;;;;;;;;6.50;6.50;;;;;;;;6487237;39;9682;-63
2021/08/19 09:11:54;;;;;;;;;7.25;6.00;;;;;;;;6488843;31;9032;-62
2021/08/19 09:18:01;;;;;;;;;5.00;5.00;;;;;;;;6488042;39;9117;-64
2021/08/19 09:24:12;;;;;;;;;7.75;6.50;;;;;;;;6487499;46;8989;-64
2021/08/19 09:30:27;;;;;;;;;8.25;8.25;;;;;;;;6486543;39;8988;-63
2021/08/19 09:36:31;;;;;;;;;7.00;7.00;;;;;;;;6487632;46;9060;-61
2021/08/19 09:42:37;;;;;;;;;8.75;8.75;;;;;;;;6485665;39;9012;-61
2021/08/19 09:48:41;;;;;;;;;8.00;8.00;;;;;;;;6485870;31;9005;-64
2021/08/19 09:54:45;;;;;;;;;8.75;7.00;;;;;;;;6486360;39;9015;-64
2021/08/19 10:00:48;;;;;;;;;6.00;6.00;;;;;;;;6485496;46;9039;-62
2021/08/19 10:06:54;;;;;;;;;5.00;5.00;;;;;;;;6487430;39;9675;-63
2021/08/19 10:13:03;;;;;;;;;8.75;7.75;;;;;;;;6487062;31;9100;-62
2021/08/19 10:19:10;;;;;;;;;6.75;6.75;;;;;;;;6486463;46;8992;-61
2021/08/19 10:25:17;;;;;;;;;9.25;7.00;;;;;;;;6486879;46;8988;-61
2021/08/19 10:31:43;;;;;;;;;6.75;6.75;;;;;;;;6486537;46;9058;-61
2021/08/19 10:37:51;;;;;;;;;8.25;8.00;;;;;;;;6486914;39;9007;-61
2021/08/19 10:44:10;;;;;;;;;6.25;6.25;;;;;;;;6487003;39;8964;-64
2021/08/19 10:50:22;;;;;;;;;9.75;8.00;;;;;;;;6486842;39;9172;-61
2021/08/19 10:56:45;;;;;;;;;5.75;4.75;;;;;;;;6485840;46;8948;-60
2021/08/19 11:02:54;;;;;;;;;7.25;7.25;;;;;;;;6487217;39;9654;-62
2021/08/19 11:08:59;;;;;;;;;6.75;6.75;;;;;;;;6486023;46;8980;-64
2021/08/19 11:15:01;;;;;;;;;7.75;7.75;;;;;;;;6486263;46;8993;-62
2021/08/19 11:21:06;;;;;;;;;7.00;7.00;;;;;;;;6488725;39;9701;-64
2021/08/19 11:27:10;;;;;;;;;13.75;10.00;;;;;;;;6488871;39;9063;-63
2021/08/19 11:33:21;;;;;;;;;8.75;8.00;;;;;;;;6488807;39;8988;-64
2021/08/19 11:39:26;;;;;;;;;9.50;8.25;;;;;;;;6488750;47;8992;-62
2021/08/19 11:45:28;;;;;;;;;7.25;7.25;;;;;;;;6488879;47;8980;-61
2021/08/19 11:51:32;;;;;;;;;8.00;8.00;;;;;;;;6489718;39;8993;-60
2021/08/19 11:57:35;;;;;;;;;6.75;6.25;;;;;;;;6489295;39;9004;-62
2021/08/19 12:03:42;;;;;;;;;7.25;7.25;;;;;;;;6488890;39;9048;-61
2021/08/19 12:09:44;;;;;;;;;7.25;5.75;;;;;;;;6488548;39;9127;-61
2021/08/19 12:15:47;;;;;;;;;8.75;8.75;;;;;;;;6489102;39;8997;-61
2021/08/19 12:21:52;;;;;;;;;5.50;5.50;;;;;;;;6488429;39;8994;-62
2021/08/19 12:28:09;;;;;;;;;7.00;5.25;;;;;;;;6489257;39;9083;-61
2021/08/19 12:34:15;;;;;;;;;7.50;7.00;;;;;;;;6488137;39;8991;-62
2021/08/19 12:40:17;;;;;;;;;6.00;6.00;;;;;;;;6488744;39;9078;-61
2021/08/19 12:46:20;;;;;;;;;7.25;6.00;;;;;;;;6491059;39;8988;-61
2021/08/19 12:52:26;;;;;;;;;5.25;5.25;;;;;;;;6490588;39;9943;-62
2021/08/19 12:58:31;;;;;;;;;6.00;4.75;;;;;;;;6489727;46;8988;-61
2021/08/19 13:04:33;;;;;;;;;5.75;5.75;;;;;;;;6488208;39;8985;-62
2021/08/19 13:10:35;;;;;;;;;6.50;6.00;;;;;;;;6489116;31;9141;-62
2021/08/19 13:16:37;;;;;;;;;4.75;4.50;;;;;;;;6490714;46;9051;-62
2021/08/19 13:22:40;;;;;;;;;6.00;6.00;;;;;;;;6490515;39;9042;-62
2021/08/19 13:28:42;;;;;;;;;6.75;6.00;;;;;;;;6490868;31;8985;-60
2021/08/19 13:34:44;;;;;;;;;6.25;5.75;;;;;;;;6490113;39;8969;-61
2021/08/19 13:40:49;;;;;;;;;6.50;6.00;;;;;;;;6490441;39;9035;-63
2021/08/19 13:46:55;;;;;;;;;3.25;3.25;;;;;;;;6489406;31;9052;-61
2021/08/19 13:52:58;;;;;;;;;5.25;5.25;;;;;;;;6487122;39;8954;-62
2021/08/19 13:59:00;;;;;;;;;7.00;6.00;;;;;;;;6488599;46;8977;-62
2021/08/19 14:05:03;;;;;;;;;7.50;6.00;;;;;;;;6488827;46;9008;-61
2021/08/19 14:11:05;;;;;;;;;7.25;7.25;;;;;;;;6490236;31;8960;-62
2021/08/19 14:17:10;;;;;;;;;7.00;6.50;;;;;;;;6489508;31;9100;-62
2021/08/19 14:23:12;;;;;;;;;6.75;6.75;;;;;;;;6488952;39;9692;-62
2021/08/19 14:29:14;;;;;;;;;6.00;6.00;;;;;;;;6489740;39;8997;-63
2021/08/19 14:35:17;;;;;;;;;2.00;2.00;;;;;;;;6489120;39;9577;-63
2021/08/19 14:41:19;;;;;;;;;6.00;6.00;;;;;;;;6489103;46;8993;-62
2021/08/19 14:47:22;;;;;;;;;7.50;6.50;;;;;;;;6489051;39;9015;-63
2021/08/19 14:53:25;;;;;;;;;6.00;6.00;;;;;;;;6488907;46;8934;-62
2021/08/19 14:59:32;;;;;;;;;8.00;8.00;;;;;;;;6488572;31;8973;-62
2021/08/19 15:05:35;;;;;;;;;7.50;6.50;;;;;;;;6489553;39;9026;-62
2021/08/19 15:11:38;;;;;;;;;8.00;6.75;;;;;;;;6488927;39;9014;-61
2021/08/19 15:17:40;;;;;;;;;6.25;6.25;;;;;;;;6488750;46;8965;-63
2021/08/19 15:23:42;;;;;;;;;7.50;7.50;;;;;;;;6489071;39;9052;-61
2021/08/19 15:29:46;;;;;;;;;5.50;5.50;;;;;;;;6488157;39;8970;-62
2021/08/19 15:35:49;;;;;;;;;6.25;6.25;;;;;;;;6487718;39;9075;-61
2021/08/19 15:41:51;;;;;;;;;6.25;5.50;;;;;;;;6488296;47;8954;-61
2021/08/19 15:47:53;;;;;;;;;6.50;6.50;;;;;;;;6488258;31;9783;-61
2021/08/19 15:53:56;;;;;;;;;3.25;3.00;;;;;;;;6488469;39;8953;-63
2021/08/19 15:59:58;;;;;;;;;7.00;5.25;;;;;;;;6489081;39;9991;-60
2021/08/19 16:06:00;;;;;;;;;11.00;8.00;;;;;;;;6488752;39;9000;-62
2021/08/19 16:12:05;;;;;;;;;6.50;6.50;;;;;;;;6488981;39;9051;-62
2021/08/19 16:18:10;;;;;;;;;7.00;7.00;;;;;;;;6491243;39;8965;-64
2021/08/19 16:24:12;;;;;;;;;7.25;6.25;;;;;;;;6489780;39;8969;-61
2021/08/19 16:30:15;;;;;;;;;8.75;7.00;;;;;;;;6490825;39;8968;-64
2021/08/19 16:36:18;;;;;;;;;5.00;5.00;;;;;;;;6489115;39;8953;-61
2021/08/19 16:42:22;;;;;;;;;9.00;8.00;;;;;;;;6490066;46;9007;-62
2021/08/19 16:48:24;;;;;;;;;9.75;9.25;;;;;;;;6490099;31;8968;-61
2021/08/19 16:54:26;;;;;;;;;6.75;6.75;;;;;;;;6490070;39;8948;-61
2021/08/19 17:00:28;;;;;;;;;8.50;8.50;;;;;;;;6490827;39;8960;-61
2021/08/19 17:06:32;;;;;;;;;13.50;11.50;;;;;;;;6490085;46;8985;-62
2021/08/19 17:12:34;;;;;;;;;7.75;7.75;;;;;;;;6490062;39;10043;-62
2021/08/19 17:18:36;;;;;;;;;11.00;11.00;;;;;;;;6490700;39;9561;-62
2021/08/19 17:24:39;;;;;;;;;12.75;12.75;;;;;;;;6488875;46;8965;-61
2021/08/19 17:30:41;;;;;;;;;17.75;12.00;;;;;;;;6489754;39;8932;-61
2021/08/19 17:36:44;;;;;;;;;14.25;13.50;;;;;;;;6490077;39;8961;-62
2021/08/19 17:42:46;;;;;;;;;12.25;11.00;;;;;;;;6488880;39;8987;-62
2021/08/19 17:48:49;;;;;;;;;13.50;12.75;;;;;;;;6489376;46;9083;-61
2021/08/19 17:54:51;;;;;;;;;17.50;17.50;;;;;;;;6489617;39;9628;-62
2021/08/19 18:00:53;;;;;;;;;14.25;14.25;;;;;;;;6489689;39;9005;-61
2021/08/19 18:06:55;;;;;;;;;14.50;14.50;;;;;;;;6489914;31;8985;-60
2021/08/19 18:12:58;;;;;;;;;13.00;13.00;;;;;;;;6489356;39;8985;-62
2021/08/19 18:19:00;;;;;;;;;12.75;11.75;;;;;;;;6489811;39;9076;-62
2021/08/19 18:25:04;;;;;;;;;15.00;13.67;;;;;;;;6489465;31;8999;-62
2021/08/19 18:31:06;;;;;;;;;15.00;14.33;;;;;;;;6489829;31;9636;-62
2021/08/19 18:37:10;;;;;;;;;17.00;14.33;;;;;;;;6489304;39;9728;-63
2021/08/19 18:43:12;;;;;;;;;16.67;16.67;;;;;;;;6489129;46;8984;-62
2021/08/19 18:49:14;;;;;;;;;20.33;18.00;;;;;;;;6489069;39;8976;-61
2021/08/19 18:55:17;;;;;;;;;18.33;17.67;;;;;;;;6488293;31;8971;-62
2021/08/19 19:01:19;;;;;;;;;21.00;18.67;;;;;;;;6489717;31;9114;-61
2021/08/19 19:07:22;;;;;;;;;16.67;16.67;;;;;;;;6489542;39;8984;-61
2021/08/19 19:13:24;;;;;;;;;19.33;17.00;;;;;;;;6489233;46;8999;-61
2021/08/19 19:19:26;;;;;;;;;21.00;19.67;;;;;;;;6489249;31;8953;-61
2021/08/19 19:25:29;;;;;;;;;17.00;17.00;;;;;;;;6489175;31;9060;-63
2021/08/19 19:31:33;;;;;;;;;19.00;18.00;;;;;;;;6488695;46;8998;-61
2021/08/19 19:37:35;;;;;;;;;19.33;14.33;;;;;;;;6489250;31;8945;-61
2021/08/19 19:43:37;;;;;;;;;20.00;18.33;;;;;;;;6488929;39;8985;-61
2021/08/19 19:49:40;;;;;;;;;21.67;19.33;;;;;;;;6490306;39;8964;-60
2021/08/19 19:55:42;;;;;;;;;23.33;20.67;;;;;;;;6492632;36;8886;-61
2021/08/19 20:01:45;;;;;;;;;20.00;19.00;;;;;;;;6490097;39;9018;-61
2021/08/19 20:07:49;;;;;;;;;23.33;23.33;;;;;;;;6490101;31;9005;-61
2021/08/19 20:13:52;;;;;;;;;23.00;20.33;;;;;;;;6490116;39;8942;-61
2021/08/19 20:19:54;;;;;;;;;12.33;12.33;;;;;;;;6490097;39;8974;-62
2021/08/19 20:25:56;;;;;;;;;19.33;19.33;;;;;;;;6489953;39;8965;-61
2021/08/19 20:31:59;;;;;;;;;20.00;17.67;;;;;;;;6490440;46;8945;-62
2021/08/19 20:38:01;;;;;;;;;18.67;16.67;;;;;;;;6490154;39;9010;-62
2021/08/19 20:44:03;;;;;;;;;18.67;17.67;;;;;;;;6490334;39;9114;-62
2021/08/19 20:50:07;;;;;;;;;24.67;22.33;;;;;;;;6489937;39;9093;-62
2021/08/19 20:56:09;;;;;;;;;26.67;24.00;;;;;;;;6489826;39;9047;-60
2021/08/19 21:02:14;;;;;;;;;23.67;22.67;;;;;;;;6489980;46;9041;-60
2021/08/19 21:08:17;;;;;;;;;20.33;19.33;;;;;;;;6489170;31;8985;-61
2021/08/19 21:14:19;;;;;;;;;25.00;24.00;;;;;;;;6489762;46;9006;-61
2021/08/19 21:20:21;;;;;;;;;23.00;22.67;;;;;;;;6490563;39;8986;-61
2021/08/19 21:26:24;;;;;;;;;22.33;19.67;;;;;;;;6489392;39;9053;-62
2021/08/19 21:32:26;;;;;;;;;17.67;16.33;;;;;;;;6489702;39;8987;-61
2021/08/19 21:38:29;;;;;;;;;21.67;18.33;;;;;;;;6488762;46;9055;-61
2021/08/19 21:44:31;;;;;;;;;21.33;19.00;;;;;;;;6489765;46;8950;-61
2021/08/19 21:50:34;;;;;;;;;24.67;22.33;;;;;;;;6489712;39;8957;-61
2021/08/19 21:56:37;;;;;;;;;22.33;20.67;;;;;;;;6489000;46;9037;-63
2021/08/19 22:02:40;;;;;;;;;20.00;19.00;;;;;;;;6490091;39;8988;-61
2021/08/19 22:08:44;;;;;;;;;24.33;22.67;;;;;;;;6489232;46;9133;-62
2021/08/19 22:14:46;;;;;;;;;26.67;23.67;;;;;;;;6489663;39;8944;-61
2021/08/19 22:20:49;;;;;;;;;26.67;26.00;;;;;;;;6489769;39;9693;-61
2021/08/19 22:26:51;;;;;;;;;22.33;22.33;;;;;;;;6489175;39;8981;-61
2021/08/19 22:32:53;;;;;;;;;19.67;16.00;;;;;;;;6489874;39;8962;-63
2021/08/19 22:38:56;;;;;;;;;19.33;18.67;;;;;;;;6488944;39;8976;-61
2021/08/19 22:44:58;;;;;;;;;18.67;18.33;;;;;;;;6489482;39;9016;-62
2021/08/19 22:51:00;;;;;;;;;23.33;21.67;;;;;;;;6489569;31;8949;-60
2021/08/19 22:57:03;;;;;;;;;20.33;20.33;;;;;;;;6489257;39;8996;-60
2021/08/19 23:03:05;;;;;;;;;25.67;23.33;;;;;;;;6489505;46;9108;-62
2021/08/19 23:09:07;;;;;;;;;21.67;21.67;;;;;;;;6489618;31;8958;-62
2021/08/19 23:15:10;;;;;;;;;23.00;21.00;;;;;;;;6489427;39;8965;-62
2021/08/19 23:21:13;;;;;;;;;21.33;20.00;;;;;;;;6489000;39;9045;-61
2021/08/19 23:27:15;;;;;;;;;29.00;27.00;;;;;;;;6488557;39;8960;-61
2021/08/19 23:33:19;;;;;;;;;24.00;24.00;;;;;;;;6489220;39;8986;-62
2021/08/19 23:39:21;;;;;;;;;21.00;21.00;;;;;;;;6489419;39;8983;-62
2021/08/19 23:45:24;;;;;;;;;24.33;21.67;;;;;;;;6489985;31;9665;-60
2021/08/19 23:51:26;;;;;;;;;25.00;20.33;;;;;;;;6488933;47;8952;-60
2021/08/19 23:57:29;;;;;;;;;22.67;19.33;;;;;;;;6489359;31;9017;-61
